createdAt,value
2022-11-24T00:01:19.835Z,47.07
2022-11-24T00:03:47.320Z,56.17
2022-11-24T00:06:15.041Z,56.37
2022-11-24T00:08:42.261Z,52.77
2022-11-24T00:11:09.943Z,69.50
2022-11-24T00:13:39.172Z,59.87
2022-11-24T00:16:12.965Z,69.20
2022-11-24T00:18:39.769Z,66.00
2022-11-24T00:21:06.522Z,58.93
2022-11-24T00:26:20.857Z,68.93
2022-11-24T00:31:33.895Z,55.40
2022-11-24T00:36:45.198Z,54.87
2022-11-24T00:41:56.496Z,50.03
2022-11-24T00:44:23.105Z,54.73
2022-11-24T00:46:49.831Z,52.40
2022-11-24T00:49:16.461Z,61.73
2022-11-24T00:51:43.210Z,57.90
2022-11-24T00:54:09.802Z,63.87
2022-11-24T00:56:36.419Z,64.60
2022-11-24T00:59:03.203Z,66.27
2022-11-24T01:01:31.187Z,68.93
2022-11-24T01:03:58.751Z,69.47
2022-11-24T01:06:25.847Z,68.00
2022-11-24T01:08:52.789Z,64.53
2022-11-24T01:11:20.318Z,64.13
2022-11-24T01:13:48.368Z,65.80
2022-11-24T01:16:15.105Z,62.37
2022-11-24T01:18:41.732Z,64.87
2022-11-24T01:21:10.323Z,71.80
2022-11-24T01:23:37.173Z,84.03
2022-11-24T01:26:04.701Z,60.87
2022-11-24T01:28:31.621Z,79.60
2022-11-24T01:30:59.000Z,67.30
2022-11-24T01:33:25.788Z,65.43
2022-11-24T01:35:52.456Z,66.10
2022-11-24T01:38:19.041Z,64.00
2022-11-24T01:40:45.644Z,64.83
2022-11-24T01:46:06.856Z,65.13
2022-11-24T01:48:36.286Z,65.77
2022-11-24T01:51:13.738Z,60.33
2022-11-24T01:53:41.303Z,57.33
2022-11-24T01:56:07.943Z,55.47
2022-11-24T01:58:34.628Z,58.33
2022-11-24T02:01:01.329Z,55.03
2022-11-24T02:03:29.279Z,58.83
2022-11-24T02:06:00.560Z,57.47
2022-11-24T02:08:29.951Z,65.00
2022-11-24T02:10:56.536Z,65.47
2022-11-24T02:13:23.304Z,62.57
2022-11-24T02:18:34.019Z,60.80
2022-11-24T02:21:00.691Z,62.33
2022-11-24T02:23:47.605Z,72.53
2022-11-24T02:26:17.301Z,60.20
2022-11-24T02:28:44.000Z,61.17
2022-11-24T02:31:10.903Z,62.47
2022-11-24T02:33:37.542Z,57.63
2022-11-24T02:36:04.190Z,59.17
2022-11-24T02:38:31.583Z,60.97
2022-11-24T02:40:58.188Z,57.57
2022-11-24T02:43:24.783Z,56.50
2022-11-24T02:45:51.446Z,57.80
2022-11-24T02:51:02.254Z,64.77
2022-11-24T02:56:12.986Z,56.00
2022-11-24T02:58:39.665Z,63.27
2022-11-24T03:01:06.415Z,57.27
2022-11-24T03:03:33.105Z,59.00
2022-11-24T03:05:59.761Z,61.90
2022-11-24T03:08:26.337Z,64.93
2022-11-24T03:10:53.051Z,62.33
2022-11-24T03:16:05.993Z,59.77
2022-11-24T03:18:32.644Z,58.13
2022-11-24T03:20:59.755Z,59.27
2022-11-24T03:23:26.413Z,59.20
2022-11-24T03:25:53.053Z,53.07
2022-11-24T03:28:19.644Z,62.10
2022-11-24T03:30:48.333Z,64.20
2022-11-24T03:33:14.950Z,75.00
2022-11-24T03:35:42.262Z,56.67
2022-11-24T03:38:09.137Z,57.87
2022-11-24T03:40:36.327Z,82.47
2022-11-24T03:43:02.950Z,70.03
2022-11-24T03:45:45.411Z,66.90
2022-11-24T03:48:13.351Z,69.90
2022-11-24T03:50:39.927Z,74.23
2022-11-24T03:53:06.616Z,77.17
2022-11-24T03:55:33.695Z,64.27
2022-11-24T03:58:00.357Z,68.20
2022-11-24T04:00:26.986Z,64.83
2022-11-24T04:05:37.753Z,60.33
2022-11-24T04:08:05.481Z,61.37
2022-11-24T04:10:32.561Z,61.13
2022-11-24T04:12:59.160Z,52.67
2022-11-24T04:18:09.860Z,43.93
2022-11-24T04:23:21.297Z,42.60
2022-11-24T04:25:47.941Z,41.60
2022-11-24T04:28:14.609Z,43.20
2022-11-24T04:30:44.832Z,43.97
2022-11-24T04:33:11.850Z,44.73
2022-11-24T04:35:38.517Z,43.40
2022-11-24T04:38:05.193Z,44.73
2022-11-24T04:40:32.223Z,41.50
2022-11-24T04:42:58.889Z,37.90
2022-11-24T04:45:25.552Z,41.67
2022-11-24T04:47:52.200Z,43.10
2022-11-24T04:50:18.852Z,40.50
2022-11-24T04:52:45.474Z,39.93
2022-11-24T04:55:12.146Z,37.07
2022-11-24T04:57:38.796Z,43.13
2022-11-24T05:00:05.746Z,37.10
2022-11-24T05:02:32.385Z,41.87
2022-11-24T05:04:58.956Z,39.80
2022-11-24T05:07:25.621Z,45.53
2022-11-24T05:10:11.180Z,44.37
2022-11-24T05:12:39.619Z,47.10
2022-11-24T05:15:06.414Z,50.03
2022-11-24T05:20:18.310Z,49.67
2022-11-24T05:22:45.523Z,45.93
2022-11-24T05:25:12.873Z,53.53
2022-11-24T05:27:39.376Z,52.50
2022-11-24T05:30:06.349Z,52.87
2022-11-24T05:32:33.122Z,56.37
2022-11-24T05:35:02.280Z,46.07
2022-11-24T05:40:13.014Z,53.67
2022-11-24T05:42:47.317Z,50.00
2022-11-24T05:45:15.821Z,49.90
2022-11-24T05:47:42.429Z,51.23
2022-11-24T05:50:15.762Z,60.13
2022-11-24T05:52:42.476Z,61.00
2022-11-24T05:55:09.119Z,53.83
2022-11-24T05:57:35.895Z,55.33
2022-11-24T06:00:03.999Z,52.67
2022-11-24T06:02:39.050Z,53.33
2022-11-24T06:07:49.884Z,51.03
2022-11-24T06:10:16.959Z,66.23
2022-11-24T06:12:43.497Z,57.13
2022-11-24T06:15:11.281Z,54.40
2022-11-24T06:20:24.420Z,57.70
2022-11-24T06:22:53.778Z,54.97
2022-11-24T06:25:20.249Z,63.30
2022-11-24T06:27:46.845Z,51.73
2022-11-24T06:30:13.847Z,51.00
2022-11-24T06:32:49.088Z,52.07
2022-11-24T06:35:16.530Z,52.13
2022-11-24T06:37:43.063Z,58.80
2022-11-24T06:40:09.854Z,53.53
2022-11-24T06:42:36.583Z,51.17
2022-11-24T06:45:08.591Z,51.03
2022-11-24T06:47:35.876Z,52.93
2022-11-24T06:50:02.841Z,49.83
2022-11-24T06:52:29.340Z,47.90
2022-11-24T06:54:56.016Z,47.83
2022-11-24T07:00:08.191Z,57.43
2022-11-24T07:02:34.754Z,50.07
2022-11-24T07:05:01.353Z,51.07
2022-11-24T07:07:27.846Z,52.83
2022-11-24T07:09:54.403Z,49.33
2022-11-24T07:12:20.886Z,54.00
2022-11-24T07:14:47.448Z,62.07
2022-11-24T07:17:13.972Z,56.87
2022-11-24T07:19:40.585Z,52.90
2022-11-24T07:22:07.174Z,50.27
2022-11-24T07:24:34.089Z,49.60
2022-11-24T07:27:00.776Z,44.53
2022-11-24T07:29:27.345Z,51.20
2022-11-24T07:34:39.560Z,59.53
2022-11-24T07:37:06.304Z,48.50
2022-11-24T07:39:32.931Z,52.40
2022-11-24T07:42:00.371Z,53.10
2022-11-24T07:44:27.091Z,53.63
2022-11-24T07:46:53.612Z,48.47
2022-11-24T07:49:20.246Z,51.70
2022-11-24T07:51:46.862Z,55.77
2022-11-24T07:54:13.635Z,53.40
2022-11-24T07:56:40.417Z,47.33
2022-11-24T08:01:51.888Z,55.37
2022-11-24T08:04:18.832Z,52.03
2022-11-24T08:06:47.540Z,54.40
2022-11-24T08:09:14.456Z,52.53
2022-11-24T08:14:27.628Z,48.43
2022-11-24T08:16:54.627Z,48.33
2022-11-24T08:19:22.006Z,62.60
2022-11-24T08:21:48.638Z,48.93
2022-11-24T08:24:16.483Z,56.23
2022-11-24T08:26:43.165Z,49.63
2022-11-24T08:29:09.813Z,51.27
2022-11-24T08:31:37.750Z,48.17
2022-11-24T08:34:04.503Z,53.37
2022-11-24T08:36:31.170Z,49.57
2022-11-24T08:38:58.304Z,50.80
2022-11-24T08:41:25.323Z,53.80
2022-11-24T08:43:51.909Z,46.67
2022-11-24T08:49:02.633Z,52.93
2022-11-24T08:51:29.261Z,52.70
2022-11-24T08:53:59.252Z,45.73
2022-11-24T08:56:26.210Z,54.90
2022-11-24T08:58:53.326Z,53.07
2022-11-24T09:01:20.069Z,52.33
2022-11-24T09:03:50.622Z,51.80
2022-11-24T09:06:18.520Z,54.17
2022-11-24T09:08:45.010Z,57.87
2022-11-24T09:11:12.827Z,57.50
2022-11-24T09:13:39.683Z,54.37
2022-11-24T09:16:08.168Z,54.10
2022-11-24T09:18:34.784Z,57.63
2022-11-24T09:23:52.924Z,49.70
2022-11-24T09:29:13.769Z,62.00
2022-11-24T09:31:40.412Z,55.40
2022-11-24T09:34:07.824Z,53.93
2022-11-24T09:36:34.563Z,54.97
2022-11-24T09:39:01.204Z,48.73
2022-11-24T09:41:30.927Z,55.43
2022-11-24T09:44:00.682Z,52.73
2022-11-24T09:46:33.706Z,55.80
2022-11-24T09:49:00.731Z,60.77
2022-11-24T09:51:28.865Z,56.43
2022-11-24T09:53:57.114Z,58.20
2022-11-24T09:56:27.572Z,63.57
2022-11-24T09:59:03.505Z,62.47
2022-11-24T10:01:30.796Z,64.07
2022-11-24T10:04:02.566Z,56.40
2022-11-24T10:06:39.581Z,62.23
2022-11-24T10:09:09.279Z,51.57
2022-11-24T10:14:26.992Z,54.13
2022-11-24T10:19:45.247Z,50.30
2022-11-24T10:24:59.188Z,47.83
2022-11-24T10:27:27.529Z,47.33
2022-11-24T10:29:57.166Z,54.03
2022-11-24T10:32:23.822Z,52.90
2022-11-24T10:34:50.731Z,56.83
2022-11-24T10:37:20.811Z,56.20
2022-11-24T10:39:54.753Z,44.80
2022-11-24T10:42:26.458Z,49.03
2022-11-24T10:44:59.948Z,57.83
2022-11-24T10:47:26.757Z,67.57
2022-11-24T10:50:04.250Z,57.17
2022-11-24T10:52:32.758Z,58.83
2022-11-24T10:55:00.748Z,56.27
2022-11-24T10:57:28.674Z,49.83
2022-11-24T10:59:55.783Z,52.57
2022-11-24T11:02:38.797Z,59.87
2022-11-24T11:05:23.569Z,54.30
2022-11-24T11:07:50.463Z,52.63
2022-11-24T11:10:18.507Z,48.50
2022-11-24T11:12:45.871Z,48.93
2022-11-24T11:15:22.998Z,48.13
2022-11-24T11:17:50.555Z,52.67
2022-11-24T11:20:18.081Z,54.37
2022-11-24T11:22:45.533Z,54.03
2022-11-24T11:25:15.222Z,57.83
2022-11-24T11:27:41.861Z,54.20
2022-11-24T11:35:51.082Z,53.27
2022-11-24T11:38:17.689Z,52.87
2022-11-24T11:40:44.478Z,53.13
2022-11-24T11:43:30.856Z,59.23
2022-11-24T11:46:02.564Z,66.60
2022-11-24T11:48:40.625Z,61.63
2022-11-24T11:51:27.221Z,60.83
2022-11-24T11:54:03.412Z,56.80
2022-11-24T11:56:30.705Z,51.87
2022-11-24T11:59:18.143Z,48.83
2022-11-24T12:02:00.177Z,55.30
2022-11-24T12:04:44.433Z,53.77
2022-11-24T12:07:17.026Z,65.87
2022-11-24T12:09:58.777Z,60.90
2022-11-24T12:12:25.320Z,64.50
2022-11-24T12:14:51.825Z,57.23
2022-11-24T12:17:36.859Z,56.53
2022-11-24T12:20:07.206Z,52.60
2022-11-24T12:22:36.877Z,55.50
2022-11-24T12:25:14.168Z,59.37
2022-11-24T12:27:43.575Z,58.57
2022-11-24T12:30:16.432Z,60.07
2022-11-24T12:32:55.082Z,56.13
2022-11-24T12:35:30.730Z,57.17
2022-11-24T12:38:00.404Z,56.37
2022-11-24T12:40:47.249Z,55.90
2022-11-24T12:43:32.655Z,50.83
2022-11-24T12:46:02.386Z,65.57
2022-11-24T12:48:32.424Z,63.07
2022-11-24T12:50:59.256Z,64.70
2022-11-24T12:53:27.431Z,62.37
2022-11-24T12:55:54.922Z,61.37
2022-11-24T12:58:24.508Z,63.90
2022-11-24T13:00:57.163Z,63.83
2022-11-24T13:03:36.121Z,64.20
2022-11-24T13:06:08.510Z,61.37
2022-11-24T13:08:35.268Z,57.57
2022-11-24T13:11:20.801Z,53.97
2022-11-24T13:14:00.204Z,64.93
2022-11-24T13:16:59.468Z,61.77
2022-11-24T13:19:26.698Z,59.30
2022-11-24T13:22:01.141Z,64.27
2022-11-24T13:24:30.749Z,59.80
2022-11-24T13:27:26.632Z,61.90
2022-11-24T13:29:53.402Z,57.80
2022-11-24T13:32:21.014Z,54.20
2022-11-24T13:34:49.738Z,57.33
2022-11-24T13:37:31.167Z,56.13
2022-11-24T13:40:11.467Z,62.77
2022-11-24T13:42:57.350Z,67.03
2022-11-24T13:45:54.067Z,67.50
2022-11-24T13:48:21.902Z,70.90
2022-11-24T13:50:55.059Z,78.57
2022-11-24T13:53:21.591Z,68.17
2022-11-24T13:58:59.528Z,76.10
2022-11-24T14:01:27.021Z,80.57
2022-11-24T14:07:06.981Z,74.47
2022-11-24T14:09:42.514Z,81.67
2022-11-24T14:12:12.170Z,78.47
2022-11-24T14:14:42.002Z,71.77
2022-11-24T14:20:16.299Z,71.47
2022-11-24T14:22:42.917Z,67.73
2022-11-24T14:25:32.987Z,56.90
2022-11-24T14:28:00.041Z,69.00
2022-11-24T14:30:26.969Z,62.17
2022-11-24T14:32:57.050Z,65.70
2022-11-24T14:35:27.424Z,64.03
2022-11-24T14:37:54.071Z,73.27
2022-11-24T14:43:29.409Z,67.57
2022-11-24T14:45:57.809Z,72.50
2022-11-24T14:48:28.145Z,82.10
2022-11-24T14:50:55.066Z,72.27
2022-11-24T14:56:06.513Z,70.00
2022-11-24T15:01:27.525Z,66.47
2022-11-24T15:04:26.551Z,71.37
2022-11-24T15:07:04.056Z,70.87
2022-11-24T15:09:39.875Z,71.47
2022-11-24T15:12:10.664Z,69.70
2022-11-24T15:17:48.072Z,67.07
2022-11-24T15:20:23.123Z,67.33
2022-11-24T15:22:52.497Z,73.37
2022-11-24T15:25:22.297Z,69.47
2022-11-24T15:27:48.984Z,68.60
2022-11-24T15:30:15.843Z,74.57
2022-11-24T15:33:02.777Z,67.07
2022-11-24T15:35:30.590Z,69.67
2022-11-24T15:37:57.191Z,72.27
2022-11-24T15:40:23.974Z,74.17
2022-11-24T15:42:52.295Z,66.30
2022-11-24T15:45:19.667Z,74.10
2022-11-24T15:47:46.449Z,67.70
2022-11-24T15:50:13.537Z,80.47
2022-11-24T15:52:40.246Z,107.00
2022-11-24T15:55:07.240Z,77.60
2022-11-24T15:57:33.770Z,88.27
2022-11-24T16:00:00.359Z,92.83
2022-11-24T16:05:11.308Z,83.53
2022-11-24T16:07:38.036Z,99.43
2022-11-24T16:10:05.198Z,108.50
2022-11-24T16:12:31.790Z,108.43
2022-11-24T16:14:58.399Z,90.53
2022-11-24T16:17:24.946Z,83.77
2022-11-24T16:20:00.245Z,79.20
2022-11-24T16:22:27.633Z,79.73
2022-11-24T16:24:54.181Z,86.67
2022-11-24T16:27:20.958Z,80.73
2022-11-24T16:29:47.573Z,77.80
2022-11-24T16:32:14.214Z,82.33
2022-11-24T16:34:41.685Z,85.70
2022-11-24T16:37:08.457Z,104.13
2022-11-24T16:39:35.176Z,77.13
2022-11-24T16:42:03.408Z,91.23
2022-11-24T16:44:30.899Z,86.00
2022-11-24T16:46:57.499Z,74.20
2022-11-24T16:49:24.210Z,78.30
2022-11-24T16:51:51.326Z,87.60
2022-11-24T16:54:18.328Z,80.10
2022-11-24T16:56:46.775Z,75.83
2022-11-24T16:59:13.804Z,79.03
2022-11-24T17:01:40.845Z,89.07
2022-11-24T17:04:12.444Z,72.03
2022-11-24T17:09:25.182Z,81.17
2022-11-24T17:11:51.898Z,80.07
2022-11-24T17:14:19.724Z,84.43
2022-11-24T17:16:46.339Z,75.27
2022-11-24T17:19:14.201Z,89.57
2022-11-24T17:21:40.827Z,85.10
2022-11-24T17:24:08.859Z,81.43
2022-11-24T17:26:35.742Z,81.97
2022-11-24T17:29:02.342Z,87.53
2022-11-24T17:31:29.046Z,83.10
2022-11-24T17:33:57.901Z,87.37
2022-11-24T17:36:24.907Z,240.90
2022-11-24T17:38:51.906Z,97.57
2022-11-24T17:41:18.895Z,97.20
2022-11-24T17:43:51.965Z,113.07
2022-11-24T17:46:18.811Z,105.87
2022-11-24T17:48:46.830Z,104.93
2022-11-24T17:51:14.305Z,101.20
2022-11-24T17:53:41.920Z,114.53
2022-11-24T17:56:09.011Z,136.87
2022-11-24T17:58:41.302Z,150.10
2022-11-24T18:01:10.174Z,112.37
2022-11-24T18:03:38.396Z,112.03
2022-11-24T18:06:11.566Z,99.03
2022-11-24T18:08:38.913Z,121.77
2022-11-24T18:11:16.076Z,99.83
2022-11-24T18:14:00.920Z,110.87
2022-11-24T18:16:31.205Z,98.57
2022-11-24T18:19:07.911Z,91.77
2022-11-24T18:24:24.109Z,109.30
2022-11-24T18:26:53.005Z,114.93
2022-11-24T18:29:19.731Z,104.53
2022-11-24T18:31:46.666Z,94.67
2022-11-24T18:34:13.288Z,98.03
2022-11-24T18:36:39.819Z,93.57
2022-11-24T18:39:06.991Z,95.80
2022-11-24T18:41:33.807Z,95.27
2022-11-24T18:44:03.540Z,99.13
2022-11-24T18:46:30.499Z,104.47
2022-11-24T18:48:58.410Z,117.93
2022-11-24T18:51:25.289Z,116.07
2022-11-24T18:53:54.277Z,110.40
2022-11-24T18:56:21.057Z,104.37
2022-11-24T18:58:47.828Z,109.27
2022-11-24T19:01:18.555Z,114.23
2022-11-24T19:03:49.539Z,111.17
2022-11-24T19:06:28.587Z,100.17
2022-11-24T19:08:55.529Z,110.37
2022-11-24T19:11:22.983Z,102.40
2022-11-24T19:13:50.214Z,99.07
2022-11-24T19:16:17.196Z,89.20
2022-11-24T19:18:46.485Z,96.53
2022-11-24T19:21:20.297Z,75.67
2022-11-24T19:23:46.938Z,84.93
2022-11-24T19:26:14.947Z,81.77
2022-11-24T19:31:27.091Z,75.67
2022-11-24T19:33:55.350Z,75.30
2022-11-24T19:36:22.717Z,80.00
2022-11-24T19:38:50.777Z,67.60
2022-11-24T19:41:20.672Z,72.77
2022-11-24T19:43:47.784Z,63.97
2022-11-24T19:46:15.289Z,67.60
2022-11-24T19:51:31.349Z,70.43
2022-11-24T19:56:42.585Z,73.33
2022-11-24T19:59:09.795Z,73.47
2022-11-24T20:01:37.472Z,73.73
2022-11-24T20:04:08.323Z,93.07
2022-11-24T20:06:39.294Z,93.90
2022-11-24T20:09:07.490Z,99.50
2022-11-24T20:11:34.109Z,97.33
2022-11-24T20:14:00.686Z,86.73
2022-11-24T20:16:33.210Z,106.37
2022-11-24T20:19:00.605Z,105.43
2022-11-24T20:21:34.004Z,88.67
2022-11-24T20:24:01.549Z,104.43
2022-11-24T20:26:29.291Z,102.60
2022-11-24T20:28:57.596Z,105.17
2022-11-24T20:31:29.063Z,103.20
2022-11-24T20:33:55.821Z,103.30
2022-11-24T20:36:23.300Z,121.17
2022-11-24T20:38:50.456Z,115.27
2022-11-24T20:41:21.339Z,114.07
2022-11-24T20:43:48.103Z,128.27
2022-11-24T20:46:16.267Z,127.37
2022-11-24T20:48:43.341Z,160.53
2022-11-24T20:51:10.961Z,156.03
2022-11-24T20:53:37.721Z,161.93
2022-11-24T20:56:07.635Z,163.10
2022-11-24T20:58:34.625Z,152.20
2022-11-24T21:01:09.158Z,159.10
2022-11-24T21:03:41.248Z,157.27
2022-11-24T21:06:09.779Z,157.37
2022-11-24T21:08:36.828Z,159.87
2022-11-24T21:11:07.578Z,160.07
2022-11-24T21:13:34.521Z,153.17
2022-11-24T21:16:01.575Z,161.07
2022-11-24T21:18:28.207Z,135.83
2022-11-24T21:20:55.003Z,149.20
2022-11-24T21:23:21.813Z,161.87
2022-11-24T21:25:48.591Z,143.83
2022-11-24T21:28:15.351Z,160.17
2022-11-24T21:30:41.921Z,157.73
2022-11-24T21:33:09.241Z,168.70
2022-11-24T21:35:36.427Z,151.90
2022-11-24T21:38:03.366Z,145.43
2022-11-24T21:40:32.090Z,158.87
2022-11-24T21:45:44.854Z,153.87
2022-11-24T21:48:11.482Z,158.07
2022-11-24T21:50:38.010Z,185.67
2022-11-24T21:53:09.497Z,162.37
2022-11-24T21:55:36.245Z,186.00
2022-11-24T21:58:05.805Z,176.70
2022-11-24T22:00:32.991Z,163.37
2022-11-24T22:05:52.491Z,168.43
2022-11-24T22:08:19.042Z,172.70
2022-11-24T22:10:45.520Z,173.20
2022-11-24T22:13:12.071Z,171.70
2022-11-24T22:18:23.745Z,143.40
2022-11-24T22:20:56.498Z,144.07
2022-11-24T22:23:23.187Z,142.57
2022-11-24T22:25:49.726Z,133.10
2022-11-24T22:28:16.361Z,128.20
2022-11-24T22:30:42.901Z,140.03
2022-11-24T22:33:09.474Z,142.27
2022-11-24T22:38:19.958Z,123.40
2022-11-24T22:40:46.554Z,127.73
2022-11-24T22:43:13.115Z,133.80
2022-11-24T22:45:39.655Z,133.37
2022-11-24T22:48:06.365Z,121.63
2022-11-24T22:50:33.192Z,120.13
2022-11-24T22:52:59.730Z,120.93
2022-11-24T22:55:26.511Z,116.73
2022-11-24T22:57:56.813Z,122.60
2022-11-24T23:00:23.808Z,113.83
2022-11-24T23:02:50.389Z,117.73
2022-11-24T23:05:20.723Z,117.13
2022-11-24T23:07:47.866Z,102.47
2022-11-24T23:10:15.505Z,102.23
2022-11-24T23:12:42.014Z,105.53
2022-11-24T23:15:08.739Z,102.47
2022-11-24T23:20:19.054Z,100.83
2022-11-24T23:22:45.601Z,91.00
2022-11-24T23:25:12.116Z,97.87
2022-11-24T23:27:38.623Z,101.70
2022-11-24T23:30:05.563Z,94.37
2022-11-24T23:32:32.045Z,89.10
2022-11-24T23:34:58.561Z,89.40
2022-11-24T23:37:39.302Z,84.77
2022-11-24T23:40:11.812Z,95.93
2022-11-24T23:42:38.391Z,86.10
2022-11-24T23:45:05.896Z,80.73
2022-11-24T23:47:32.385Z,75.47
2022-11-24T23:49:58.974Z,78.50
2022-11-24T23:52:25.465Z,81.13
2022-11-24T23:54:51.935Z,75.73
2022-11-24T23:57:18.428Z,77.47
2022-11-24T23:59:44.999Z,78.33
